Terminal Aerodrome Forecast
Issued by NWS

Home | Current Version | Previous Version | Text Only | Print | Product List | Glossary On
Versions: 1 2 3 4 5 6 7 8 9 10 11 12 13 14 15 16 17 18 19 20 21 22 23 24 25 26 27
000
FTUS41 KALY 161400 AAB
TAFPSF
TAF AMD
KPSF 161408Z 1614/1712 VRB03KT P6SM FEW025 BKN035 OVC060
      TEMPO 1614/1615 BKN004 BKN012 OVC080
     FM161800 29007KT P6SM SCT025 SCT040
     FM170000 00000KT P6SM SKC
     FM170600 00000KT 2SM BR BKN008=

USA.gov is the U.S. government's official web portal to all federal, state and local government web resources and services.